sensor_id;sensor_type;location;lat;lon;timestamp;P1;durP1;ratioP1;P2;durP2;ratioP2
15635;SDS011;7917;50.818;6.972;2023-05-25T00:00:34;23.92;;;11.23;;
15635;SDS011;7917;50.818;6.972;2023-05-25T00:03:01;23.40;;;10.85;;
15635;SDS011;7917;50.818;6.972;2023-05-25T00:05:28;21.05;;;10.13;;
15635;SDS011;7917;50.818;6.972;2023-05-25T00:07:55;17.65;;;11.35;;
15635;SDS011;7917;50.818;6.972;2023-05-25T00:10:21;18.40;;;10.00;;
15635;SDS011;7917;50.818;6.972;2023-05-25T00:12:48;22.38;;;10.13;;
15635;SDS011;7917;50.818;6.972;2023-05-25T00:15:14;23.95;;;10.35;;
15635;SDS011;7917;50.818;6.972;2023-05-25T00:17:41;15.05;;;10.23;;
15635;SDS011;7917;50.818;6.972;2023-05-25T00:20:09;22.02;;;11.48;;
15635;SDS011;7917;50.818;6.972;2023-05-25T00:22:38;21.90;;;10.57;;
15635;SDS011;7917;50.818;6.972;2023-05-25T00:25:09;24.77;;;11.43;;
15635;SDS011;7917;50.818;6.972;2023-05-25T00:27:36;19.20;;;11.82;;
15635;SDS011;7917;50.818;6.972;2023-05-25T00:30:02;20.67;;;10.65;;
15635;SDS011;7917;50.818;6.972;2023-05-25T00:32:29;21.42;;;10.80;;
15635;SDS011;7917;50.818;6.972;2023-05-25T00:34:56;23.02;;;11.52;;
15635;SDS011;7917;50.818;6.972;2023-05-25T00:37:22;28.92;;;12.40;;
15635;SDS011;7917;50.818;6.972;2023-05-25T00:39:49;20.73;;;10.93;;
15635;SDS011;7917;50.818;6.972;2023-05-25T00:42:16;16.48;;;10.55;;
15635;SDS011;7917;50.818;6.972;2023-05-25T00:44:44;19.42;;;10.77;;
15635;SDS011;7917;50.818;6.972;2023-05-25T00:47:15;21.38;;;11.68;;
15635;SDS011;7917;50.818;6.972;2023-05-25T00:49:42;20.65;;;11.05;;
15635;SDS011;7917;50.818;6.972;2023-05-25T00:52:09;19.00;;;11.45;;
15635;SDS011;7917;50.818;6.972;2023-05-25T00:54:36;18.25;;;11.55;;
15635;SDS011;7917;50.818;6.972;2023-05-25T00:57:05;20.40;;;11.40;;
15635;SDS011;7917;50.818;6.972;2023-05-25T00:59:34;27.10;;;11.63;;
15635;SDS011;7917;50.818;6.972;2023-05-25T01:02:06;20.20;;;11.52;;
15635;SDS011;7917;50.818;6.972;2023-05-25T01:04:36;22.08;;;10.52;;
15635;SDS011;7917;50.818;6.972;2023-05-25T01:07:05;24.63;;;10.85;;
15635;SDS011;7917;50.818;6.972;2023-05-25T01:09:35;24.10;;;11.38;;
15635;SDS011;7917;50.818;6.972;2023-05-25T01:12:04;21.50;;;9.60;;
15635;SDS011;7917;50.818;6.972;2023-05-25T01:14:33;20.00;;;11.45;;
15635;SDS011;7917;50.818;6.972;2023-05-25T01:17:00;19.40;;;10.85;;
15635;SDS011;7917;50.818;6.972;2023-05-25T01:19:27;17.13;;;10.70;;
15635;SDS011;7917;50.818;6.972;2023-05-25T01:22:00;24.15;;;11.80;;
15635;SDS011;7917;50.818;6.972;2023-05-25T01:24:30;21.90;;;12.48;;
15635;SDS011;7917;50.818;6.972;2023-05-25T01:27:06;19.90;;;11.45;;
15635;SDS011;7917;50.818;6.972;2023-05-25T01:29:37;21.98;;;11.88;;
15635;SDS011;7917;50.818;6.972;2023-05-25T01:32:07;26.50;;;11.63;;
15635;SDS011;7917;50.818;6.972;2023-05-25T01:34:34;27.58;;;12.23;;
15635;SDS011;7917;50.818;6.972;2023-05-25T01:37:03;19.42;;;11.43;;
15635;SDS011;7917;50.818;6.972;2023-05-25T01:39:31;22.33;;;11.75;;
15635;SDS011;7917;50.818;6.972;2023-05-25T01:41:57;20.17;;;11.68;;
15635;SDS011;7917;50.818;6.972;2023-05-25T01:44:26;26.58;;;12.23;;
15635;SDS011;7917;50.818;6.972;2023-05-25T01:46:56;21.30;;;11.32;;
15635;SDS011;7917;50.818;6.972;2023-05-25T01:49:28;20.92;;;10.77;;
15635;SDS011;7917;50.818;6.972;2023-05-25T01:52:06;25.55;;;11.98;;
15635;SDS011;7917;50.818;6.972;2023-05-25T01:54:39;19.60;;;10.48;;
15635;SDS011;7917;50.818;6.972;2023-05-25T01:57:11;20.13;;;12.05;;
15635;SDS011;7917;50.818;6.972;2023-05-25T01:59:39;21.20;;;12.68;;
15635;SDS011;7917;50.818;6.972;2023-05-25T02:02:10;21.05;;;12.27;;
15635;SDS011;7917;50.818;6.972;2023-05-25T02:04:39;17.38;;;11.13;;
15635;SDS011;7917;50.818;6.972;2023-05-25T02:07:08;21.20;;;10.75;;
15635;SDS011;7917;50.818;6.972;2023-05-25T02:09:35;25.35;;;11.55;;
15635;SDS011;7917;50.818;6.972;2023-05-25T02:12:03;15.70;;;10.05;;
15635;SDS011;7917;50.818;6.972;2023-05-25T02:14:32;22.33;;;10.48;;
15635;SDS011;7917;50.818;6.972;2023-05-25T02:16:58;26.85;;;11.73;;
15635;SDS011;7917;50.818;6.972;2023-05-25T02:19:26;24.70;;;10.90;;
15635;SDS011;7917;50.818;6.972;2023-05-25T02:21:53;19.25;;;10.50;;
15635;SDS011;7917;50.818;6.972;2023-05-25T02:24:21;22.95;;;11.43;;
15635;SDS011;7917;50.818;6.972;2023-05-25T02:26:49;29.02;;;11.57;;
15635;SDS011;7917;50.818;6.972;2023-05-25T02:29:17;22.85;;;11.63;;
15635;SDS011;7917;50.818;6.972;2023-05-25T02:31:44;25.77;;;11.23;;
15635;SDS011;7917;50.818;6.972;2023-05-25T02:34:11;27.55;;;12.18;;
15635;SDS011;7917;50.818;6.972;2023-05-25T02:36:40;29.63;;;12.13;;
15635;SDS011;7917;50.818;6.972;2023-05-25T02:39:11;22.23;;;11.63;;
15635;SDS011;7917;50.818;6.972;2023-05-25T02:41:38;24.52;;;11.23;;
15635;SDS011;7917;50.818;6.972;2023-05-25T02:44:05;26.10;;;12.90;;
15635;SDS011;7917;50.818;6.972;2023-05-25T02:46:32;22.65;;;11.98;;
15635;SDS011;7917;50.818;6.972;2023-05-25T02:48:59;20.08;;;10.82;;
15635;SDS011;7917;50.818;6.972;2023-05-25T02:51:26;24.50;;;11.57;;
15635;SDS011;7917;50.818;6.972;2023-05-25T02:53:52;23.75;;;11.52;;
15635;SDS011;7917;50.818;6.972;2023-05-25T02:56:19;21.77;;;11.90;;
15635;SDS011;7917;50.818;6.972;2023-05-25T02:58:48;25.77;;;11.82;;
15635;SDS011;7917;50.818;6.972;2023-05-25T03:04:32;24.35;;;12.82;;
15635;SDS011;7917;50.818;6.972;2023-05-25T03:07:01;30.15;;;14.27;;
15635;SDS011;7917;50.818;6.972;2023-05-25T03:09:28;33.45;;;14.55;;
15635;SDS011;7917;50.818;6.972;2023-05-25T03:11:55;25.63;;;13.32;;
15635;SDS011;7917;50.818;6.972;2023-05-25T03:14:22;26.85;;;13.27;;
15635;SDS011;7917;50.818;6.972;2023-05-25T03:16:49;24.20;;;14.85;;
15635;SDS011;7917;50.818;6.972;2023-05-25T03:19:16;27.45;;;12.82;;
15635;SDS011;7917;50.818;6.972;2023-05-25T03:21:44;20.98;;;13.38;;
15635;SDS011;7917;50.818;6.972;2023-05-25T03:24:11;25.80;;;12.80;;
15635;SDS011;7917;50.818;6.972;2023-05-25T03:26:38;31.63;;;14.95;;
15635;SDS011;7917;50.818;6.972;2023-05-25T03:29:05;28.42;;;13.85;;
15635;SDS011;7917;50.818;6.972;2023-05-25T03:31:32;22.25;;;13.52;;
15635;SDS011;7917;50.818;6.972;2023-05-25T03:33:59;23.77;;;13.65;;
15635;SDS011;7917;50.818;6.972;2023-05-25T03:36:26;22.35;;;11.82;;
15635;SDS011;7917;50.818;6.972;2023-05-25T03:38:55;26.60;;;13.10;;
15635;SDS011;7917;50.818;6.972;2023-05-25T03:41:22;30.02;;;13.13;;
15635;SDS011;7917;50.818;6.972;2023-05-25T03:43:50;20.00;;;12.40;;
15635;SDS011;7917;50.818;6.972;2023-05-25T03:46:17;22.48;;;12.25;;
15635;SDS011;7917;50.818;6.972;2023-05-25T03:48:44;24.60;;;13.88;;
15635;SDS011;7917;50.818;6.972;2023-05-25T03:51:11;25.13;;;12.90;;
15635;SDS011;7917;50.818;6.972;2023-05-25T03:53:38;21.92;;;12.85;;
15635;SDS011;7917;50.818;6.972;2023-05-25T03:56:05;21.65;;;11.98;;
15635;SDS011;7917;50.818;6.972;2023-05-25T03:58:36;23.08;;;13.18;;
15635;SDS011;7917;50.818;6.972;2023-05-25T04:01:03;19.38;;;12.05;;
15635;SDS011;7917;50.818;6.972;2023-05-25T04:03:29;23.52;;;12.40;;
15635;SDS011;7917;50.818;6.972;2023-05-25T04:05:58;23.00;;;12.57;;
15635;SDS011;7917;50.818;6.972;2023-05-25T04:08:24;27.85;;;13.40;;
15635;SDS011;7917;50.818;6.972;2023-05-25T04:10:52;27.02;;;13.55;;
15635;SDS011;7917;50.818;6.972;2023-05-25T04:13:19;24.73;;;14.38;;
15635;SDS011;7917;50.818;6.972;2023-05-25T04:15:46;25.13;;;14.65;;
15635;SDS011;7917;50.818;6.972;2023-05-25T04:18:12;24.42;;;14.18;;
15635;SDS011;7917;50.818;6.972;2023-05-25T04:20:39;25.83;;;13.48;;
15635;SDS011;7917;50.818;6.972;2023-05-25T04:23:06;30.02;;;13.80;;
15635;SDS011;7917;50.818;6.972;2023-05-25T04:25:34;25.42;;;14.35;;
15635;SDS011;7917;50.818;6.972;2023-05-25T04:28:01;25.98;;;14.77;;
15635;SDS011;7917;50.818;6.972;2023-05-25T04:30:28;27.60;;;15.32;;
15635;SDS011;7917;50.818;6.972;2023-05-25T04:32:55;28.70;;;15.15;;
15635;SDS011;7917;50.818;6.972;2023-05-25T04:35:26;32.47;;;15.60;;
15635;SDS011;7917;50.818;6.972;2023-05-25T04:37:53;26.85;;;14.00;;
15635;SDS011;7917;50.818;6.972;2023-05-25T04:40:21;34.20;;;14.90;;
15635;SDS011;7917;50.818;6.972;2023-05-25T04:42:48;28.55;;;14.50;;
15635;SDS011;7917;50.818;6.972;2023-05-25T04:45:18;29.63;;;15.25;;
15635;SDS011;7917;50.818;6.972;2023-05-25T04:47:45;28.73;;;13.82;;
15635;SDS011;7917;50.818;6.972;2023-05-25T04:50:14;27.42;;;13.63;;
15635;SDS011;7917;50.818;6.972;2023-05-25T04:52:41;24.33;;;13.98;;
15635;SDS011;7917;50.818;6.972;2023-05-25T04:55:08;28.88;;;14.20;;
15635;SDS011;7917;50.818;6.972;2023-05-25T04:57:36;30.20;;;15.50;;
15635;SDS011;7917;50.818;6.972;2023-05-25T05:00:03;32.05;;;15.75;;
15635;SDS011;7917;50.818;6.972;2023-05-25T05:02:31;28.27;;;17.00;;
15635;SDS011;7917;50.818;6.972;2023-05-25T05:04:57;36.13;;;16.52;;
15635;SDS011;7917;50.818;6.972;2023-05-25T05:07:23;28.30;;;14.93;;
15635;SDS011;7917;50.818;6.972;2023-05-25T05:09:50;31.85;;;15.65;;
15635;SDS011;7917;50.818;6.972;2023-05-25T05:12:16;42.10;;;16.23;;
15635;SDS011;7917;50.818;6.972;2023-05-25T05:14:44;33.30;;;14.93;;
15635;SDS011;7917;50.818;6.972;2023-05-25T05:17:11;33.13;;;14.98;;
15635;SDS011;7917;50.818;6.972;2023-05-25T05:19:37;30.55;;;15.35;;
15635;SDS011;7917;50.818;6.972;2023-05-25T05:22:04;31.15;;;15.38;;
15635;SDS011;7917;50.818;6.972;2023-05-25T05:24:32;31.40;;;15.50;;
15635;SDS011;7917;50.818;6.972;2023-05-25T05:26:59;25.85;;;14.70;;
15635;SDS011;7917;50.818;6.972;2023-05-25T05:29:26;25.83;;;14.15;;
15635;SDS011;7917;50.818;6.972;2023-05-25T05:31:53;25.48;;;13.73;;
15635;SDS011;7917;50.818;6.972;2023-05-25T05:34:20;24.95;;;13.32;;
15635;SDS011;7917;50.818;6.972;2023-05-25T05:36:47;26.30;;;14.80;;
15635;SDS011;7917;50.818;6.972;2023-05-25T05:39:14;24.20;;;13.70;;
15635;SDS011;7917;50.818;6.972;2023-05-25T05:41:40;25.73;;;14.32;;
15635;SDS011;7917;50.818;6.972;2023-05-25T05:44:10;25.27;;;15.55;;
15635;SDS011;7917;50.818;6.972;2023-05-25T05:46:37;24.17;;;13.23;;
15635;SDS011;7917;50.818;6.972;2023-05-25T05:49:04;19.90;;;13.10;;
15635;SDS011;7917;50.818;6.972;2023-05-25T05:51:31;26.67;;;12.65;;
15635;SDS011;7917;50.818;6.972;2023-05-25T05:53:58;23.83;;;13.98;;
15635;SDS011;7917;50.818;6.972;2023-05-25T05:56:24;25.15;;;12.50;;
15635;SDS011;7917;50.818;6.972;2023-05-25T05:58:51;23.70;;;13.88;;
15635;SDS011;7917;50.818;6.972;2023-05-25T06:01:18;21.55;;;12.57;;
15635;SDS011;7917;50.818;6.972;2023-05-25T06:03:47;18.35;;;12.18;;
15635;SDS011;7917;50.818;6.972;2023-05-25T06:06:14;24.55;;;12.90;;
15635;SDS011;7917;50.818;6.972;2023-05-25T06:08:41;21.17;;;12.95;;
15635;SDS011;7917;50.818;6.972;2023-05-25T06:11:08;22.65;;;13.45;;
15635;SDS011;7917;50.818;6.972;2023-05-25T06:13:35;22.15;;;11.82;;
15635;SDS011;7917;50.818;6.972;2023-05-25T06:16:02;20.00;;;13.38;;
15635;SDS011;7917;50.818;6.972;2023-05-25T06:18:29;26.35;;;13.60;;
15635;SDS011;7917;50.818;6.972;2023-05-25T06:20:55;26.33;;;12.48;;
15635;SDS011;7917;50.818;6.972;2023-05-25T06:23:22;25.83;;;12.90;;
15635;SDS011;7917;50.818;6.972;2023-05-25T06:25:50;23.90;;;11.98;;
15635;SDS011;7917;50.818;6.972;2023-05-25T06:28:18;28.70;;;12.75;;
15635;SDS011;7917;50.818;6.972;2023-05-25T06:30:44;24.95;;;13.07;;
15635;SDS011;7917;50.818;6.972;2023-05-25T06:33:11;23.30;;;12.57;;
15635;SDS011;7917;50.818;6.972;2023-05-25T06:35:39;25.75;;;13.13;;
15635;SDS011;7917;50.818;6.972;2023-05-25T06:38:05;24.88;;;13.18;;
15635;SDS011;7917;50.818;6.972;2023-05-25T06:40:33;21.60;;;12.90;;
15635;SDS011;7917;50.818;6.972;2023-05-25T06:43:00;29.67;;;14.27;;
15635;SDS011;7917;50.818;6.972;2023-05-25T06:45:27;22.83;;;12.27;;
15635;SDS011;7917;50.818;6.972;2023-05-25T06:47:53;28.05;;;12.20;;
15635;SDS011;7917;50.818;6.972;2023-05-25T06:50:20;21.38;;;12.57;;
15635;SDS011;7917;50.818;6.972;2023-05-25T06:52:46;29.65;;;12.98;;
15635;SDS011;7917;50.818;6.972;2023-05-25T06:55:13;28.42;;;12.00;;
15635;SDS011;7917;50.818;6.972;2023-05-25T06:57:40;47.65;;;13.23;;
15635;SDS011;7917;50.818;6.972;2023-05-25T07:00:08;30.58;;;11.98;;
15635;SDS011;7917;50.818;6.972;2023-05-25T07:02:36;23.10;;;10.90;;
15635;SDS011;7917;50.818;6.972;2023-05-25T07:05:03;21.48;;;10.98;;
15635;SDS011;7917;50.818;6.972;2023-05-25T07:07:30;20.83;;;10.18;;
15635;SDS011;7917;50.818;6.972;2023-05-25T07:09:56;20.05;;;9.63;;
15635;SDS011;7917;50.818;6.972;2023-05-25T07:12:24;43.55;;;12.18;;
15635;SDS011;7917;50.818;6.972;2023-05-25T07:14:51;24.38;;;11.85;;
15635;SDS011;7917;50.818;6.972;2023-05-25T07:17:17;20.45;;;11.50;;
15635;SDS011;7917;50.818;6.972;2023-05-25T07:19:44;26.08;;;11.70;;
15635;SDS011;7917;50.818;6.972;2023-05-25T07:22:10;21.77;;;10.77;;
15635;SDS011;7917;50.818;6.972;2023-05-25T07:24:37;26.48;;;10.77;;
15635;SDS011;7917;50.818;6.972;2023-05-25T07:27:07;21.48;;;11.80;;
15635;SDS011;7917;50.818;6.972;2023-05-25T07:29:33;26.38;;;11.48;;
15635;SDS011;7917;50.818;6.972;2023-05-25T07:32:01;27.08;;;12.30;;
15635;SDS011;7917;50.818;6.972;2023-05-25T07:34:28;20.05;;;10.82;;
15635;SDS011;7917;50.818;6.972;2023-05-25T07:36:55;26.60;;;11.88;;
15635;SDS011;7917;50.818;6.972;2023-05-25T07:39:22;17.98;;;10.02;;
15635;SDS011;7917;50.818;6.972;2023-05-25T07:41:49;26.13;;;11.18;;
15635;SDS011;7917;50.818;6.972;2023-05-25T07:44:15;20.95;;;11.07;;
15635;SDS011;7917;50.818;6.972;2023-05-25T07:46:42;24.75;;;11.13;;
15635;SDS011;7917;50.818;6.972;2023-05-25T07:49:09;17.52;;;10.45;;
15635;SDS011;7917;50.818;6.972;2023-05-25T07:51:40;18.42;;;10.20;;
15635;SDS011;7917;50.818;6.972;2023-05-25T07:54:06;18.25;;;9.77;;
15635;SDS011;7917;50.818;6.972;2023-05-25T07:56:33;19.77;;;9.68;;
15635;SDS011;7917;50.818;6.972;2023-05-25T07:58:59;21.65;;;9.32;;
15635;SDS011;7917;50.818;6.972;2023-05-25T08:01:27;18.95;;;9.32;;
15635;SDS011;7917;50.818;6.972;2023-05-25T08:03:54;23.25;;;9.65;;
15635;SDS011;7917;50.818;6.972;2023-05-25T08:06:21;22.08;;;10.05;;
15635;SDS011;7917;50.818;6.972;2023-05-25T08:08:47;22.65;;;10.73;;
15635;SDS011;7917;50.818;6.972;2023-05-25T08:11:14;30.08;;;10.25;;
15635;SDS011;7917;50.818;6.972;2023-05-25T08:13:41;17.88;;;8.82;;
15635;SDS011;7917;50.818;6.972;2023-05-25T08:16:08;20.88;;;9.43;;
15635;SDS011;7917;50.818;6.972;2023-05-25T08:18:35;20.42;;;9.27;;
15635;SDS011;7917;50.818;6.972;2023-05-25T08:21:01;20.75;;;9.63;;
15635;SDS011;7917;50.818;6.972;2023-05-25T08:23:29;14.20;;;7.85;;
15635;SDS011;7917;50.818;6.972;2023-05-25T08:25:55;16.50;;;8.20;;
15635;SDS011;7917;50.818;6.972;2023-05-25T08:28:22;16.25;;;9.75;;
15635;SDS011;7917;50.818;6.972;2023-05-25T08:30:49;19.65;;;9.35;;
15635;SDS011;7917;50.818;6.972;2023-05-25T08:33:16;15.77;;;7.60;;
15635;SDS011;7917;50.818;6.972;2023-05-25T08:35:43;25.63;;;9.25;;
15635;SDS011;7917;50.818;6.972;2023-05-25T08:38:09;14.57;;;8.73;;
15635;SDS011;7917;50.818;6.972;2023-05-25T08:40:36;19.45;;;8.70;;
15635;SDS011;7917;50.818;6.972;2023-05-25T08:43:06;25.05;;;8.77;;
15635;SDS011;7917;50.818;6.972;2023-05-25T08:45:33;44.13;;;11.60;;
15635;SDS011;7917;50.818;6.972;2023-05-25T08:48:00;16.70;;;8.95;;
15635;SDS011;7917;50.818;6.972;2023-05-25T08:50:32;17.95;;;9.25;;
15635;SDS011;7917;50.818;6.972;2023-05-25T08:53:01;20.00;;;7.55;;
15635;SDS011;7917;50.818;6.972;2023-05-25T08:55:30;18.40;;;6.68;;
15635;SDS011;7917;50.818;6.972;2023-05-25T08:58:05;16.65;;;6.57;;
15635;SDS011;7917;50.818;6.972;2023-05-25T09:00:38;12.90;;;6.95;;
15635;SDS011;7917;50.818;6.972;2023-05-25T09:03:10;17.40;;;7.63;;
15635;SDS011;7917;50.818;6.972;2023-05-25T09:05:42;15.45;;;7.30;;
15635;SDS011;7917;50.818;6.972;2023-05-25T09:08:08;20.05;;;6.45;;
15635;SDS011;7917;50.818;6.972;2023-05-25T09:10:36;15.75;;;6.78;;
15635;SDS011;7917;50.818;6.972;2023-05-25T09:13:04;18.58;;;7.00;;
15635;SDS011;7917;50.818;6.972;2023-05-25T09:15:31;17.75;;;7.00;;
15635;SDS011;7917;50.818;6.972;2023-05-25T09:17:58;14.40;;;6.30;;
15635;SDS011;7917;50.818;6.972;2023-05-25T09:20:25;11.43;;;5.93;;
15635;SDS011;7917;50.818;6.972;2023-05-25T09:22:55;15.82;;;7.15;;
15635;SDS011;7917;50.818;6.972;2023-05-25T09:25:23;15.07;;;7.15;;
15635;SDS011;7917;50.818;6.972;2023-05-25T09:27:52;14.80;;;6.95;;
15635;SDS011;7917;50.818;6.972;2023-05-25T09:30:19;14.85;;;6.88;;
15635;SDS011;7917;50.818;6.972;2023-05-25T09:32:46;13.85;;;6.20;;
15635;SDS011;7917;50.818;6.972;2023-05-25T09:35:16;10.13;;;5.55;;
15635;SDS011;7917;50.818;6.972;2023-05-25T09:37:43;43.60;;;8.85;;
15635;SDS011;7917;50.818;6.972;2023-05-25T09:40:10;17.23;;;7.00;;
15635;SDS011;7917;50.818;6.972;2023-05-25T09:42:38;15.95;;;6.90;;
15635;SDS011;7917;50.818;6.972;2023-05-25T09:45:05;55.95;;;11.13;;
15635;SDS011;7917;50.818;6.972;2023-05-25T09:47:34;22.85;;;7.07;;
15635;SDS011;7917;50.818;6.972;2023-05-25T09:50:02;19.77;;;6.82;;
15635;SDS011;7917;50.818;6.972;2023-05-25T09:52:30;11.38;;;5.95;;
15635;SDS011;7917;50.818;6.972;2023-05-25T09:54:56;14.57;;;5.85;;
15635;SDS011;7917;50.818;6.972;2023-05-25T09:57:23;14.38;;;5.50;;
15635;SDS011;7917;50.818;6.972;2023-05-25T09:59:52;11.68;;;5.43;;
15635;SDS011;7917;50.818;6.972;2023-05-25T10:02:19;13.38;;;4.93;;
15635;SDS011;7917;50.818;6.972;2023-05-25T10:04:46;18.27;;;6.15;;
15635;SDS011;7917;50.818;6.972;2023-05-25T10:07:14;14.10;;;6.15;;
15635;SDS011;7917;50.818;6.972;2023-05-25T10:09:41;21.33;;;6.50;;
15635;SDS011;7917;50.818;6.972;2023-05-25T10:12:10;10.40;;;5.60;;
15635;SDS011;7917;50.818;6.972;2023-05-25T10:14:42;12.80;;;6.63;;
15635;SDS011;7917;50.818;6.972;2023-05-25T10:17:10;10.15;;;5.57;;
15635;SDS011;7917;50.818;6.972;2023-05-25T10:19:44;13.35;;;6.32;;
15635;SDS011;7917;50.818;6.972;2023-05-25T10:22:20;11.98;;;6.28;;
15635;SDS011;7917;50.818;6.972;2023-05-25T10:24:56;10.90;;;5.78;;
15635;SDS011;7917;50.818;6.972;2023-05-25T10:27:32;8.20;;;5.72;;
15635;SDS011;7917;50.818;6.972;2023-05-25T10:30:07;12.15;;;5.00;;
15635;SDS011;7917;50.818;6.972;2023-05-25T10:32:35;9.38;;;5.40;;
15635;SDS011;7917;50.818;6.972;2023-05-25T10:35:03;11.32;;;5.72;;
15635;SDS011;7917;50.818;6.972;2023-05-25T10:37:34;10.15;;;4.82;;
15635;SDS011;7917;50.818;6.972;2023-05-25T10:40:02;12.05;;;5.45;;
15635;SDS011;7917;50.818;6.972;2023-05-25T10:42:33;11.18;;;6.22;;
15635;SDS011;7917;50.818;6.972;2023-05-25T10:45:01;12.90;;;6.07;;
15635;SDS011;7917;50.818;6.972;2023-05-25T10:47:29;10.10;;;5.25;;
15635;SDS011;7917;50.818;6.972;2023-05-25T10:49:56;9.38;;;5.32;;
15635;SDS011;7917;50.818;6.972;2023-05-25T10:52:25;11.82;;;6.00;;
15635;SDS011;7917;50.818;6.972;2023-05-25T10:54:54;13.43;;;5.60;;
15635;SDS011;7917;50.818;6.972;2023-05-25T10:57:23;11.20;;;6.20;;
15635;SDS011;7917;50.818;6.972;2023-05-25T10:59:51;15.30;;;5.40;;
15635;SDS011;7917;50.818;6.972;2023-05-25T11:02:25;11.50;;;5.78;;
15635;SDS011;7917;50.818;6.972;2023-05-25T11:04:57;10.07;;;5.80;;
15635;SDS011;7917;50.818;6.972;2023-05-25T11:07:57;11.60;;;5.82;;
15635;SDS011;7917;50.818;6.972;2023-05-25T11:10:49;15.20;;;7.03;;
15635;SDS011;7917;50.818;6.972;2023-05-25T11:13:32;14.23;;;6.45;;
15635;SDS011;7917;50.818;6.972;2023-05-25T11:16:15;12.43;;;6.03;;
15635;SDS011;7917;50.818;6.972;2023-05-25T11:18:44;19.17;;;7.53;;
15635;SDS011;7917;50.818;6.972;2023-05-25T11:21:15;15.55;;;6.10;;
15635;SDS011;7917;50.818;6.972;2023-05-25T11:23:55;11.52;;;5.95;;
15635;SDS011;7917;50.818;6.972;2023-05-25T11:26:24;15.00;;;8.00;;
15635;SDS011;7917;50.818;6.972;2023-05-25T11:28:51;14.45;;;7.10;;
15635;SDS011;7917;50.818;6.972;2023-05-25T11:31:19;13.95;;;7.20;;
15635;SDS011;7917;50.818;6.972;2023-05-25T11:33:48;17.38;;;9.15;;
15635;SDS011;7917;50.818;6.972;2023-05-25T11:36:21;14.43;;;8.23;;
15635;SDS011;7917;50.818;6.972;2023-05-25T11:38:51;14.02;;;7.38;;
15635;SDS011;7917;50.818;6.972;2023-05-25T11:41:18;14.18;;;7.65;;
15635;SDS011;7917;50.818;6.972;2023-05-25T11:43:49;10.88;;;7.38;;
15635;SDS011;7917;50.818;6.972;2023-05-25T11:46:16;18.10;;;7.57;;
15635;SDS011;7917;50.818;6.972;2023-05-25T11:48:45;14.80;;;7.30;;
15635;SDS011;7917;50.818;6.972;2023-05-25T11:51:16;14.77;;;7.88;;
15635;SDS011;7917;50.818;6.972;2023-05-25T11:53:43;15.27;;;8.32;;
15635;SDS011;7917;50.818;6.972;2023-05-25T11:56:12;16.60;;;7.97;;
15635;SDS011;7917;50.818;6.972;2023-05-25T11:58:43;13.98;;;7.75;;
15635;SDS011;7917;50.818;6.972;2023-05-25T12:01:12;15.40;;;6.72;;
15635;SDS011;7917;50.818;6.972;2023-05-25T12:03:40;13.32;;;6.88;;
15635;SDS011;7917;50.818;6.972;2023-05-25T12:06:07;12.77;;;6.45;;
15635;SDS011;7917;50.818;6.972;2023-05-25T12:08:34;10.57;;;6.85;;
15635;SDS011;7917;50.818;6.972;2023-05-25T12:11:01;12.93;;;7.05;;
15635;SDS011;7917;50.818;6.972;2023-05-25T12:13:28;10.32;;;6.43;;
15635;SDS011;7917;50.818;6.972;2023-05-25T12:15:56;13.45;;;7.75;;
15635;SDS011;7917;50.818;6.972;2023-05-25T12:18:25;10.52;;;6.57;;
15635;SDS011;7917;50.818;6.972;2023-05-25T12:20:54;11.07;;;6.70;;
15635;SDS011;7917;50.818;6.972;2023-05-25T12:23:21;10.38;;;6.40;;
15635;SDS011;7917;50.818;6.972;2023-05-25T12:25:48;15.57;;;6.60;;
15635;SDS011;7917;50.818;6.972;2023-05-25T12:28:16;10.13;;;6.97;;
15635;SDS011;7917;50.818;6.972;2023-05-25T12:30:42;14.15;;;7.13;;
15635;SDS011;7917;50.818;6.972;2023-05-25T12:33:11;10.52;;;6.30;;
15635;SDS011;7917;50.818;6.972;2023-05-25T12:35:46;8.98;;;6.40;;
15635;SDS011;7917;50.818;6.972;2023-05-25T12:38:15;10.77;;;5.60;;
15635;SDS011;7917;50.818;6.972;2023-05-25T12:40:42;10.32;;;6.43;;
15635;SDS011;7917;50.818;6.972;2023-05-25T12:43:09;11.23;;;6.03;;
15635;SDS011;7917;50.818;6.972;2023-05-25T12:45:38;14.65;;;6.57;;
15635;SDS011;7917;50.818;6.972;2023-05-25T12:48:05;12.95;;;7.03;;
15635;SDS011;7917;50.818;6.972;2023-05-25T12:50:32;13.20;;;7.22;;
15635;SDS011;7917;50.818;6.972;2023-05-25T12:53:00;10.52;;;6.50;;
15635;SDS011;7917;50.818;6.972;2023-05-25T12:55:28;12.38;;;6.45;;
15635;SDS011;7917;50.818;6.972;2023-05-25T12:57:57;11.85;;;7.60;;
15635;SDS011;7917;50.818;6.972;2023-05-25T13:00:26;10.73;;;7.32;;
15635;SDS011;7917;50.818;6.972;2023-05-25T13:02:56;13.45;;;7.43;;
15635;SDS011;7917;50.818;6.972;2023-05-25T13:05:24;17.38;;;7.93;;
15635;SDS011;7917;50.818;6.972;2023-05-25T13:07:52;18.77;;;8.40;;
15635;SDS011;7917;50.818;6.972;2023-05-25T13:10:21;16.65;;;8.27;;
15635;SDS011;7917;50.818;6.972;2023-05-25T13:12:48;14.15;;;8.02;;
15635;SDS011;7917;50.818;6.972;2023-05-25T13:15:16;12.13;;;8.23;;
15635;SDS011;7917;50.818;6.972;2023-05-25T13:17:45;13.50;;;9.30;;
15635;SDS011;7917;50.818;6.972;2023-05-25T13:20:12;10.73;;;9.45;;
15635;SDS011;7917;50.818;6.972;2023-05-25T13:22:39;13.93;;;8.82;;
15635;SDS011;7917;50.818;6.972;2023-05-25T13:25:08;11.15;;;9.32;;
15635;SDS011;7917;50.818;6.972;2023-05-25T13:27:36;15.40;;;10.48;;
15635;SDS011;7917;50.818;6.972;2023-05-25T13:30:04;18.10;;;11.00;;
15635;SDS011;7917;50.818;6.972;2023-05-25T13:32:33;13.32;;;9.52;;
15635;SDS011;7917;50.818;6.972;2023-05-25T13:35:00;13.57;;;11.05;;
15635;SDS011;7917;50.818;6.972;2023-05-25T13:37:28;15.20;;;10.48;;
15635;SDS011;7917;50.818;6.972;2023-05-25T13:39:57;14.82;;;10.68;;
15635;SDS011;7917;50.818;6.972;2023-05-25T13:42:23;11.10;;;8.55;;
15635;SDS011;7917;50.818;6.972;2023-05-25T13:44:51;13.25;;;8.25;;
15635;SDS011;7917;50.818;6.972;2023-05-25T13:47:17;10.20;;;7.13;;
15635;SDS011;7917;50.818;6.972;2023-05-25T13:49:44;9.98;;;6.90;;
15635;SDS011;7917;50.818;6.972;2023-05-25T13:52:11;9.95;;;5.47;;
15635;SDS011;7917;50.818;6.972;2023-05-25T13:54:39;8.70;;;5.63;;
15635;SDS011;7917;50.818;6.972;2023-05-25T13:57:05;10.15;;;5.60;;
15635;SDS011;7917;50.818;6.972;2023-05-25T13:59:32;12.02;;;5.85;;
15635;SDS011;7917;50.818;6.972;2023-05-25T14:02:00;7.85;;;5.40;;
15635;SDS011;7917;50.818;6.972;2023-05-25T14:04:27;7.78;;;5.10;;
15635;SDS011;7917;50.818;6.972;2023-05-25T14:06:53;10.77;;;5.35;;
15635;SDS011;7917;50.818;6.972;2023-05-25T14:09:21;9.68;;;5.40;;
15635;SDS011;7917;50.818;6.972;2023-05-25T14:11:48;10.10;;;5.03;;
15635;SDS011;7917;50.818;6.972;2023-05-25T14:14:16;9.15;;;5.40;;
15635;SDS011;7917;50.818;6.972;2023-05-25T14:16:42;11.93;;;5.45;;
15635;SDS011;7917;50.818;6.972;2023-05-25T14:19:10;12.02;;;5.15;;
15635;SDS011;7917;50.818;6.972;2023-05-25T14:21:39;7.53;;;5.03;;
15635;SDS011;7917;50.818;6.972;2023-05-25T14:24:06;7.82;;;5.18;;
15635;SDS011;7917;50.818;6.972;2023-05-25T14:26:32;10.60;;;5.55;;
15635;SDS011;7917;50.818;6.972;2023-05-25T14:28:59;8.85;;;4.88;;
15635;SDS011;7917;50.818;6.972;2023-05-25T14:31:27;7.43;;;5.18;;
15635;SDS011;7917;50.818;6.972;2023-05-25T14:33:53;9.07;;;5.07;;
15635;SDS011;7917;50.818;6.972;2023-05-25T14:36:22;8.93;;;5.55;;
15635;SDS011;7917;50.818;6.972;2023-05-25T14:38:48;9.55;;;5.65;;
15635;SDS011;7917;50.818;6.972;2023-05-25T14:41:15;10.05;;;5.57;;
15635;SDS011;7917;50.818;6.972;2023-05-25T14:43:41;8.55;;;5.95;;
15635;SDS011;7917;50.818;6.972;2023-05-25T14:46:08;9.98;;;5.80;;
15635;SDS011;7917;50.818;6.972;2023-05-25T14:48:35;12.90;;;5.85;;